createdAt,value
2019-05-18T00:00:47.953Z,92837.24
2019-05-18T00:03:16.374Z,92833.38
2019-05-18T00:05:44.763Z,92830.05
2019-05-18T00:08:13.261Z,92833.49
2019-05-18T00:10:41.732Z,92833.09
2019-05-18T00:13:10.141Z,92833.66
2019-05-18T00:15:38.528Z,92834.00
2019-05-18T00:18:06.932Z,92830.39
2019-05-18T00:20:35.355Z,92831.23
2019-05-18T00:23:03.845Z,92832.83
2019-05-18T00:25:32.318Z,92826.93
2019-05-18T00:28:00.733Z,92829.83
2019-05-18T00:30:29.216Z,92825.76
2019-05-18T00:32:57.646Z,92819.83
2019-05-18T00:35:26.069Z,92820.16
2019-05-18T00:37:54.483Z,92826.64
2019-05-18T00:40:22.882Z,92826.72
2019-05-18T00:42:51.308Z,92823.66
2019-05-18T00:45:19.783Z,92821.63
2019-05-18T00:47:48.182Z,92821.65
2019-05-18T00:50:17.223Z,92821.94
2019-05-18T00:52:45.642Z,92820.17
2019-05-18T00:55:14.119Z,92820.97
2019-05-18T00:57:42.518Z,92818.45
2019-05-18T01:00:11.675Z,92817.44
2019-05-18T01:02:40.105Z,92820.61
2019-05-18T01:05:08.983Z,92814.68
2019-05-18T01:07:37.419Z,92815.51
2019-05-18T01:10:07.970Z,92815.77
2019-05-18T01:12:36.407Z,92812.72
2019-05-18T01:15:06.959Z,92811.22
2019-05-18T01:17:35.423Z,92808.89
2019-05-18T01:20:05.204Z,92809.69
2019-05-18T01:22:33.619Z,92812.02
2019-05-18T01:25:02.022Z,92803.99
2019-05-18T01:27:30.455Z,92806.08
2019-05-18T01:29:58.858Z,92803.72
2019-05-18T01:32:28.300Z,92800.88
2019-05-18T01:34:56.751Z,92803.48
2019-05-18T01:37:25.147Z,92799.66
2019-05-18T01:39:54.564Z,92800.44
2019-05-18T01:42:22.973Z,92803.84
2019-05-18T01:44:51.408Z,92808.01
2019-05-18T01:47:19.809Z,92806.20
2019-05-18T01:49:48.292Z,92801.26
2019-05-18T01:52:16.716Z,92798.16
2019-05-18T01:54:45.125Z,92798.16
2019-05-18T01:57:13.546Z,92798.69
2019-05-18T01:59:41.983Z,92803.91
2019-05-18T02:02:10.416Z,92799.04
2019-05-18T02:04:38.815Z,92794.64
2019-05-18T02:07:07.248Z,92796.50
2019-05-18T02:09:35.685Z,92791.84
2019-05-18T02:12:04.198Z,92801.96
2019-05-18T02:14:32.590Z,92803.25
2019-05-18T02:17:01.001Z,92804.56
2019-05-18T02:19:29.438Z,92807.72
2019-05-18T02:21:57.854Z,92802.03
2019-05-18T02:24:26.281Z,92796.84
2019-05-18T02:26:54.712Z,92796.84
2019-05-18T02:29:23.118Z,92802.54
2019-05-18T02:31:51.527Z,92798.66
2019-05-18T02:34:19.941Z,92787.25
2019-05-18T02:36:48.408Z,92790.63
2019-05-18T02:39:16.810Z,92798.91
2019-05-18T02:41:45.247Z,92802.81
2019-05-18T02:44:13.678Z,92797.14
2019-05-18T02:46:42.104Z,92795.09
2019-05-18T02:49:10.541Z,92793.81
2019-05-18T02:51:38.961Z,92791.23
2019-05-18T02:54:07.521Z,92788.92
2019-05-18T02:56:36.622Z,92791.78
2019-05-18T02:59:05.029Z,92792.83
2019-05-18T03:01:33.426Z,92794.92
2019-05-18T03:04:01.864Z,92794.92
2019-05-18T03:06:30.317Z,92794.68
2019-05-18T03:08:58.809Z,92797.53
2019-05-18T03:11:27.225Z,92797.54
2019-05-18T03:13:55.622Z,92798.59
2019-05-18T03:16:24.069Z,92805.58
2019-05-18T03:19:07.789Z,92802.72
2019-05-18T03:21:22.893Z,92802.99
2019-05-18T03:23:51.337Z,92806.89
2019-05-18T03:26:19.762Z,92791.17
2019-05-18T03:28:48.184Z,92798.63
2019-05-18T03:31:16.602Z,92800.48
2019-05-18T03:33:45.014Z,92799.70
2019-05-18T03:36:13.445Z,92809.31
2019-05-18T03:38:41.871Z,92807.23
2019-05-18T03:41:10.308Z,92801.29
2019-05-18T03:43:38.720Z,92799.45
2019-05-18T03:46:07.160Z,92795.58
2019-05-18T03:48:35.554Z,92793.01
2019-05-18T03:51:03.986Z,92799.77
2019-05-18T03:53:32.404Z,92801.81
2019-05-18T03:56:00.801Z,92806.73
2019-05-18T03:58:29.228Z,92801.54
2019-05-18T04:00:57.681Z,92803.58
2019-05-18T04:03:26.077Z,92804.63
2019-05-18T04:05:54.523Z,92809.30
2019-05-18T04:08:22.946Z,92810.04
2019-05-18T04:10:51.340Z,92805.64
2019-05-18T04:13:19.777Z,92813.37
2019-05-18T04:15:48.206Z,92819.08
2019-05-18T04:18:16.622Z,92815.68
2019-05-18T04:20:45.043Z,92820.30
2019-05-18T04:23:13.479Z,92817.92
2019-05-18T04:25:43.905Z,92811.64
2019-05-18T04:28:12.064Z,92810.77
2019-05-18T04:30:40.485Z,92795.98
2019-05-18T04:33:08.918Z,92810.78
2019-05-18T04:35:37.313Z,92814.02
2019-05-18T04:38:05.722Z,92815.71
2019-05-18T04:40:34.214Z,92810.64
2019-05-18T04:43:02.669Z,92821.63
2019-05-18T04:45:31.088Z,92816.23
2019-05-18T04:47:59.532Z,92822.08
2019-05-18T04:50:27.983Z,92817.45
2019-05-18T04:52:56.394Z,92819.16
2019-05-18T04:55:24.796Z,92820.55
2019-05-18T04:57:53.217Z,92825.55
2019-05-18T05:00:21.774Z,92826.41
2019-05-18T05:02:50.174Z,92817.56
2019-05-18T05:05:18.598Z,92813.48
2019-05-18T05:07:47.133Z,92818.23
2019-05-18T05:10:15.540Z,92813.05
2019-05-18T05:12:43.950Z,92816.80
2019-05-18T05:15:12.743Z,92813.25
2019-05-18T05:17:41.128Z,92807.20
2019-05-18T05:20:19.395Z,92809.29
2019-05-18T05:22:39.918Z,92806.11
2019-05-18T05:25:08.515Z,92803.52
2019-05-18T05:27:36.952Z,92804.63
2019-05-18T05:30:07.415Z,92806.31
2019-05-18T05:32:35.848Z,92798.44
2019-05-18T05:35:05.726Z,92795.33
2019-05-18T05:37:34.207Z,92796.06
2019-05-18T05:40:02.642Z,92797.01
2019-05-18T05:42:31.071Z,92806.51
2019-05-18T05:44:59.550Z,92804.30
2019-05-18T05:47:27.971Z,92812.55
2019-05-18T05:49:59.707Z,92814.69
2019-05-18T05:52:28.082Z,92815.92
2019-05-18T05:54:56.483Z,92814.75
2019-05-18T05:57:25.142Z,92824.35
2019-05-18T05:59:53.710Z,92820.33
2019-05-18T06:02:22.179Z,92819.20
2019-05-18T06:04:50.593Z,92822.11
2019-05-18T06:07:18.986Z,92822.34
2019-05-18T06:09:47.391Z,92826.44
2019-05-18T06:12:15.786Z,92818.09
2019-05-18T06:14:44.230Z,92814.14
2019-05-18T06:17:12.673Z,92816.70
2019-05-18T06:19:41.096Z,92818.39
2019-05-18T06:22:11.450Z,92819.50
2019-05-18T06:24:39.853Z,92820.53
2019-05-18T06:27:08.265Z,92825.67
2019-05-18T06:29:36.773Z,92819.72
2019-05-18T06:32:05.345Z,92827.53
2019-05-18T06:34:33.753Z,92823.47
2019-05-18T06:37:02.326Z,92828.83
2019-05-18T06:39:33.469Z,92831.20
2019-05-18T06:42:01.929Z,92826.69
2019-05-18T06:44:30.619Z,92828.95
2019-05-18T06:46:59.034Z,92825.60
2019-05-18T06:49:27.507Z,92823.14
2019-05-18T06:51:56.202Z,92820.27
2019-05-18T06:54:33.892Z,92822.81
2019-05-18T06:57:25.522Z,92823.11
2019-05-18T06:59:54.512Z,92821.13
2019-05-18T07:02:22.939Z,92828.49
2019-05-18T07:04:51.412Z,92823.53
2019-05-18T07:07:20.023Z,92824.00
2019-05-18T07:09:48.651Z,92818.87
2019-05-18T07:12:17.050Z,92819.63
2019-05-18T07:14:45.456Z,92824.64
2019-05-18T07:17:13.852Z,92826.01
2019-05-18T07:19:42.273Z,92823.02
2019-05-18T07:22:10.703Z,92817.19
2019-05-18T07:24:39.112Z,92815.84
2019-05-18T07:27:07.527Z,92812.16
2019-05-18T07:29:35.945Z,92812.71
2019-05-18T07:32:14.129Z,92810.83
2019-05-18T07:34:43.053Z,92810.39
2019-05-18T07:37:11.481Z,92807.64
2019-05-18T07:39:39.878Z,92802.19
2019-05-18T07:42:09.371Z,92805.96
2019-05-18T07:44:40.540Z,92804.84
2019-05-18T07:47:09.039Z,92807.49
2019-05-18T07:49:37.464Z,92806.08
2019-05-18T07:52:05.886Z,92810.96
2019-05-18T07:54:34.342Z,92808.53
2019-05-18T07:57:02.766Z,92807.58
2019-05-18T07:59:31.238Z,92800.36
2019-05-18T08:01:59.642Z,92803.42
2019-05-18T08:04:28.279Z,92801.30
2019-05-18T08:06:56.705Z,92802.20
2019-05-18T08:09:25.112Z,92795.98
2019-05-18T08:11:53.550Z,92800.88
2019-05-18T08:14:22.004Z,92803.28
2019-05-18T08:16:56.494Z,92793.63
2019-05-18T08:19:25.953Z,92795.38
2019-05-18T08:21:54.411Z,92790.94
2019-05-18T08:24:23.011Z,92794.62
2019-05-18T08:26:51.526Z,92783.81
2019-05-18T08:29:20.087Z,92778.29
2019-05-18T08:31:48.768Z,92789.43
2019-05-18T08:34:17.189Z,92784.69
2019-05-18T08:36:45.625Z,92782.51
2019-05-18T08:39:14.352Z,92783.84
2019-05-18T08:41:42.798Z,92786.92
2019-05-18T08:44:11.221Z,92787.45
2019-05-18T08:46:39.991Z,92786.68
2019-05-18T08:49:08.412Z,92784.52
2019-05-18T08:51:37.148Z,92777.95
2019-05-18T08:54:05.564Z,92778.23
2019-05-18T08:56:34.002Z,92778.58
2019-05-18T08:59:02.768Z,92777.72
2019-05-18T09:01:31.172Z,92774.95
2019-05-18T09:03:59.566Z,92771.70
2019-05-18T09:06:28.369Z,92771.30
2019-05-18T09:08:56.790Z,92764.81
2019-05-18T09:11:25.515Z,92767.60
2019-05-18T09:13:53.903Z,92764.63
2019-05-18T09:16:22.342Z,92763.56
2019-05-18T09:18:50.731Z,92761.15
2019-05-18T09:21:19.434Z,92756.41
2019-05-18T09:23:47.869Z,92760.33
2019-05-18T09:26:16.304Z,92752.92
2019-05-18T09:28:44.734Z,92752.17
2019-05-18T09:31:13.472Z,92750.47
2019-05-18T09:33:41.901Z,92742.73
2019-05-18T09:36:10.313Z,92748.80
2019-05-18T09:38:38.805Z,92742.75
2019-05-18T09:41:07.217Z,92738.98
2019-05-18T09:43:35.641Z,92746.56
2019-05-18T09:46:04.662Z,92744.83
2019-05-18T09:48:33.461Z,92742.37
2019-05-18T09:51:02.249Z,92743.46
2019-05-18T09:53:30.667Z,92739.38
2019-05-18T09:55:59.415Z,92736.98
2019-05-18T09:58:28.095Z,92737.64
2019-05-18T10:00:56.903Z,92734.67
2019-05-18T10:03:25.560Z,92734.67
2019-05-18T10:05:54.254Z,92723.41
2019-05-18T10:08:22.646Z,92723.41
2019-05-18T10:10:51.080Z,92726.30
2019-05-18T10:13:19.473Z,92726.41
2019-05-18T10:15:48.204Z,92728.72
2019-05-18T10:18:16.637Z,92731.16
2019-05-18T10:20:45.360Z,92733.04
2019-05-18T10:23:14.121Z,92733.04
2019-05-18T10:25:42.940Z,92726.56
2019-05-18T10:28:11.364Z,92722.63
2019-05-18T10:30:39.802Z,92722.79
2019-05-18T10:33:08.227Z,92717.64
2019-05-18T10:35:36.653Z,92712.59
2019-05-18T10:38:05.332Z,92712.59
2019-05-18T10:40:33.751Z,92711.10
2019-05-18T10:43:02.158Z,92707.42
2019-05-18T10:45:30.906Z,92699.58
2019-05-18T10:47:59.357Z,92696.61
2019-05-18T10:50:27.763Z,92697.04
2019-05-18T10:52:56.191Z,92691.64
2019-05-18T10:55:24.591Z,92691.25
2019-05-18T10:57:53.019Z,92691.06
2019-05-18T11:00:21.848Z,92694.09
2019-05-18T11:02:50.374Z,92690.11
2019-05-18T11:05:18.970Z,92697.66
2019-05-18T11:07:47.378Z,92690.20
2019-05-18T11:10:17.840Z,92686.49
2019-05-18T11:12:46.535Z,92683.29
2019-05-18T11:15:15.595Z,92666.41
2019-05-18T11:17:44.334Z,92681.31
2019-05-18T11:20:14.642Z,92675.17
2019-05-18T11:22:43.047Z,92675.22
2019-05-18T11:25:11.914Z,92677.80
2019-05-18T11:27:40.344Z,92673.30
2019-05-18T11:30:10.546Z,92673.86
2019-05-18T11:32:39.458Z,92675.59
2019-05-18T11:35:09.143Z,92666.35
2019-05-18T11:37:37.544Z,92675.16
2019-05-18T11:40:08.178Z,92676.41
2019-05-18T11:42:36.629Z,92674.69
2019-05-18T11:45:09.981Z,92672.28
2019-05-18T11:47:38.426Z,92672.11
2019-05-18T11:50:10.587Z,92671.77
2019-05-18T11:52:39.272Z,92671.03
2019-05-18T11:55:08.533Z,92674.09
2019-05-18T11:57:38.765Z,92672.21
2019-05-18T12:00:09.952Z,92668.59
2019-05-18T12:02:38.700Z,92674.56
2019-05-18T12:05:07.663Z,92667.41
2019-05-18T12:07:36.063Z,92666.81
2019-05-18T12:10:07.308Z,92664.51
2019-05-18T12:12:35.773Z,92670.93
2019-05-18T12:15:06.660Z,92667.87
2019-05-18T12:17:35.447Z,92673.24
2019-05-18T12:20:05.347Z,92666.91
2019-05-18T12:22:34.052Z,92668.09
2019-05-18T12:25:02.722Z,92664.53
2019-05-18T12:27:31.551Z,92665.80
2019-05-18T12:30:00.055Z,92671.42
2019-05-18T12:32:28.478Z,92666.98
2019-05-18T12:34:57.161Z,92668.52
2019-05-18T12:37:25.574Z,92672.30
2019-05-18T12:39:54.332Z,92669.48
2019-05-18T12:42:23.003Z,92664.23
2019-05-18T12:44:51.421Z,92666.76
2019-05-18T12:47:20.080Z,92662.66
2019-05-18T12:49:48.573Z,92656.58
2019-05-18T12:52:17.017Z,92658.22
2019-05-18T12:54:46.889Z,92656.89
2019-05-18T12:57:15.713Z,92652.95
2019-05-18T12:59:44.104Z,92658.52
2019-05-18T13:02:12.607Z,92651.13
2019-05-18T13:04:41.960Z,92651.49
2019-05-18T13:07:10.502Z,92652.59
2019-05-18T13:09:38.902Z,92645.35
2019-05-18T13:12:07.666Z,92639.68
2019-05-18T13:14:36.098Z,92639.30
2019-05-18T13:17:04.500Z,92639.15
2019-05-18T13:19:32.926Z,92635.69
2019-05-18T13:22:01.750Z,92636.64
2019-05-18T13:24:44.326Z,92630.53
2019-05-18T13:27:00.633Z,92633.02
2019-05-18T13:29:29.071Z,92625.40
2019-05-18T13:31:57.503Z,92624.77
2019-05-18T13:34:26.181Z,92621.74
2019-05-18T13:36:54.840Z,92621.56
2019-05-18T13:39:24.881Z,92617.78
2019-05-18T13:41:53.290Z,92618.34
2019-05-18T13:44:22.030Z,92621.94
2019-05-18T13:46:50.713Z,92619.48
2019-05-18T13:49:19.113Z,92614.33
2019-05-18T13:51:47.543Z,92618.52
2019-05-18T13:54:15.969Z,92610.16
2019-05-18T13:56:44.398Z,92611.51
2019-05-18T13:59:12.792Z,92607.91
2019-05-18T14:01:41.229Z,92600.75
2019-05-18T14:04:09.692Z,92591.22
2019-05-18T14:06:38.360Z,92590.76
2019-05-18T14:09:06.996Z,92593.91
2019-05-18T14:11:35.750Z,92596.42
2019-05-18T14:14:05.146Z,92593.70
2019-05-18T14:16:33.584Z,92595.86
2019-05-18T14:19:02.509Z,92593.91
2019-05-18T14:21:30.913Z,92599.61
2019-05-18T14:23:59.696Z,92596.02
2019-05-18T14:26:28.364Z,92590.16
2019-05-18T14:28:56.821Z,92591.64
2019-05-18T14:31:25.260Z,92586.89
2019-05-18T14:33:53.699Z,92592.05
2019-05-18T14:36:22.100Z,92588.81
2019-05-18T14:38:50.530Z,92592.44
2019-05-18T14:41:18.924Z,92586.14
2019-05-18T14:43:47.391Z,92589.94
2019-05-18T14:46:15.788Z,92590.91
2019-05-18T14:48:44.511Z,92594.72
2019-05-18T14:51:13.203Z,92595.08
2019-05-18T14:53:41.607Z,92599.08
2019-05-18T14:56:10.027Z,92599.09
2019-05-18T14:58:38.485Z,92594.49
2019-05-18T15:01:07.074Z,92591.81
2019-05-18T15:03:35.815Z,92587.81
2019-05-18T15:06:04.278Z,92583.59
2019-05-18T15:08:32.711Z,92585.34
2019-05-18T15:11:01.105Z,92583.66
2019-05-18T15:13:29.522Z,92584.81
2019-05-18T15:15:57.906Z,92588.40
2019-05-18T15:18:26.331Z,92584.98
2019-05-18T15:20:54.728Z,92583.64
2019-05-18T15:23:23.127Z,92578.45
2019-05-18T15:25:51.849Z,92577.76
2019-05-18T15:56:05.939Z,92563.47
2019-05-18T15:58:30.408Z,92562.91
2019-05-18T16:00:58.902Z,92566.09
2019-05-18T16:03:27.336Z,92555.44
2019-05-18T16:05:55.725Z,92558.91
2019-05-18T16:08:24.164Z,92562.28
2019-05-18T16:10:52.630Z,92556.88
2019-05-18T16:13:21.059Z,92559.33
2019-05-18T16:15:49.849Z,92558.70
2019-05-18T16:18:18.250Z,92564.03
2019-05-18T16:20:46.668Z,92572.20
2019-05-18T16:23:15.069Z,92562.41
2019-05-18T16:25:44.003Z,92567.77
2019-05-18T16:28:12.416Z,92572.42
2019-05-18T16:30:40.895Z,92574.29
2019-05-18T16:33:09.629Z,92566.80
2019-05-18T16:35:38.298Z,92571.82
2019-05-18T16:38:06.753Z,92569.89
2019-05-18T16:40:35.187Z,92566.47
2019-05-18T16:43:03.636Z,92569.36
2019-05-18T16:45:32.096Z,92562.02
2019-05-18T16:48:00.529Z,92563.28
2019-05-18T16:50:28.953Z,92569.58
2019-05-18T16:52:57.428Z,92570.08
2019-05-18T16:55:25.855Z,92569.17
2019-05-18T16:57:54.292Z,92564.67
2019-05-18T17:00:23.248Z,92568.49
2019-05-18T17:02:52.018Z,92568.22
2019-05-18T17:05:20.520Z,92565.23
2019-05-18T17:07:49.296Z,92563.02
2019-05-18T17:10:18.413Z,92569.01
2019-05-18T17:12:46.818Z,92568.91
2019-05-18T17:15:15.688Z,92567.25
2019-05-18T17:17:44.331Z,92569.32
2019-05-18T17:20:13.957Z,92570.59
2019-05-18T17:22:42.494Z,92568.00
2019-05-18T17:25:11.272Z,92566.66
2019-05-18T17:27:39.843Z,92569.91
2019-05-18T17:30:09.017Z,92569.91
2019-05-18T17:32:37.922Z,92571.92
2019-05-18T17:35:08.392Z,92572.52
2019-05-18T17:37:36.849Z,92574.27
2019-05-18T17:40:07.295Z,92574.27
2019-05-18T17:42:35.789Z,92581.88
2019-05-18T17:45:06.568Z,92578.05
2019-05-18T17:47:34.970Z,92578.05
2019-05-18T17:50:05.539Z,92577.35
2019-05-18T17:52:34.237Z,92586.24
2019-05-18T17:55:02.946Z,92584.64
2019-05-18T17:57:31.472Z,92590.83
2019-05-18T17:59:59.944Z,92588.74
2019-05-18T18:02:28.364Z,92586.64
2019-05-18T18:04:57.072Z,92589.69
2019-05-18T18:07:25.563Z,92597.89
2019-05-18T18:09:54.473Z,92597.41
2019-05-18T18:12:23.267Z,92597.62
2019-05-18T18:14:51.704Z,92595.09
2019-05-18T18:17:20.398Z,92600.49
2019-05-18T18:19:48.808Z,92599.70
2019-05-18T18:22:17.454Z,92603.66
2019-05-18T18:24:46.142Z,92603.10
2019-05-18T18:27:24.539Z,92607.48
2019-05-18T18:29:44.689Z,92605.74
2019-05-18T18:32:13.095Z,92614.03
2019-05-18T18:34:41.501Z,92609.93
2019-05-18T18:37:09.903Z,92617.39
2019-05-18T18:39:38.328Z,92618.08
2019-05-18T18:42:06.727Z,92617.52
2019-05-18T18:44:35.166Z,92620.40
2019-05-18T18:47:04.030Z,92619.33
2019-05-18T18:49:32.482Z,92617.53
2019-05-18T18:52:01.199Z,92621.49
2019-05-18T18:54:30.226Z,92629.94
2019-05-18T18:56:58.650Z,92627.88
2019-05-18T18:59:28.578Z,92635.88
2019-05-18T19:01:56.981Z,92635.98
2019-05-18T19:04:25.441Z,92639.83
2019-05-18T19:06:54.259Z,92636.63
2019-05-18T19:09:22.682Z,92640.31
2019-05-18T19:11:51.489Z,92639.36
2019-05-18T19:14:19.951Z,92640.88
2019-05-18T19:16:48.507Z,92644.61
2019-05-18T19:19:16.992Z,92647.86
2019-05-18T19:21:45.725Z,92647.75
2019-05-18T19:24:14.253Z,92653.33
2019-05-18T19:26:42.840Z,92658.05
2019-05-18T19:29:11.231Z,92667.72
2019-05-18T19:31:39.664Z,92670.57
2019-05-18T19:34:08.125Z,92665.31
2019-05-18T19:36:36.684Z,92664.66
2019-05-18T19:39:06.845Z,92668.17
2019-05-18T19:41:35.648Z,92671.51
2019-05-18T19:44:04.100Z,92677.09
2019-05-18T19:46:32.529Z,92678.77
2019-05-18T19:49:00.920Z,92678.19
2019-05-18T19:51:32.807Z,92682.81
2019-05-18T19:54:01.366Z,92687.72
2019-05-18T19:56:37.530Z,92687.39
2019-05-18T19:59:00.521Z,92684.52
2019-05-18T20:01:28.932Z,92689.88
2019-05-18T20:03:57.318Z,92688.12
2019-05-18T20:06:26.053Z,92690.41
2019-05-18T20:08:54.453Z,92691.55
2019-05-18T20:11:22.848Z,92687.36
2019-05-18T20:13:51.341Z,92688.45
2019-05-18T20:16:20.116Z,92682.53
2019-05-18T20:18:48.771Z,92683.63
2019-05-18T20:21:17.637Z,92680.53
2019-05-18T20:23:47.417Z,92679.32
2019-05-18T20:26:15.812Z,92681.92
2019-05-18T20:28:44.207Z,92673.58
2019-05-18T20:31:12.685Z,92686.38
2019-05-18T20:33:41.078Z,92680.47
2019-05-18T20:36:09.680Z,92677.30
2019-05-18T20:38:38.361Z,92679.95
2019-05-18T20:41:06.772Z,92677.11
2019-05-18T20:43:35.765Z,92676.74
2019-05-18T20:46:04.716Z,92674.75
2019-05-18T20:48:33.435Z,92674.94
2019-05-18T20:51:01.856Z,92673.48
2019-05-18T20:53:30.262Z,92677.70
2019-05-18T20:55:58.808Z,92673.54
2019-05-18T20:58:39.537Z,92679.10
2019-05-18T21:00:57.567Z,92663.91
2019-05-18T21:03:26.040Z,92671.56
2019-05-18T21:05:54.856Z,92669.66
2019-05-18T21:08:23.645Z,92669.66
2019-05-18T21:10:52.425Z,92675.91
2019-05-18T21:13:21.025Z,92675.04
2019-05-18T21:15:49.449Z,92673.06
2019-05-18T21:18:17.869Z,92676.13
2019-05-18T21:20:46.587Z,92675.51
2019-05-18T21:23:15.015Z,92669.69
2019-05-18T21:25:43.738Z,92668.59
2019-05-18T21:28:12.523Z,92668.37
2019-05-18T21:30:40.925Z,92672.10
2019-05-18T21:33:09.486Z,92667.94
2019-05-18T21:35:37.926Z,92670.88
2019-05-18T21:38:06.595Z,92665.28
2019-05-18T21:40:35.067Z,92665.38
2019-05-18T21:43:03.806Z,92672.03
2019-05-18T21:45:32.595Z,92667.84
2019-05-18T21:48:01.282Z,92676.27
2019-05-18T21:50:29.969Z,92677.23
2019-05-18T21:52:58.678Z,92672.41
2019-05-18T21:55:27.060Z,92673.48
2019-05-18T21:57:56.056Z,92677.66
2019-05-18T22:00:25.098Z,92680.38
2019-05-18T22:02:53.705Z,92682.22
2019-05-18T22:05:22.434Z,92688.43
2019-05-18T22:07:50.963Z,92697.61
2019-05-18T22:10:25.783Z,92699.63
2019-05-18T22:12:49.687Z,92694.20
2019-05-18T22:15:18.854Z,92698.09
2019-05-18T22:18:03.090Z,92701.09
2019-05-18T22:20:35.603Z,92699.45
2019-05-18T22:23:05.318Z,92703.94
2019-05-18T22:25:34.466Z,92703.22
2019-05-18T22:28:03.233Z,92700.53
2019-05-18T22:30:31.648Z,92703.84
2019-05-18T22:33:00.087Z,92701.94
2019-05-18T22:35:28.861Z,92694.83
2019-05-18T22:37:59.180Z,92693.58
2019-05-18T22:40:27.617Z,92688.59
2019-05-18T22:42:56.349Z,92694.81
2019-05-18T22:45:25.051Z,92696.92
2019-05-18T22:47:53.487Z,92702.59
2019-05-18T22:50:22.051Z,92703.44
2019-05-18T22:52:50.807Z,92705.92
2019-05-18T22:55:19.495Z,92705.86
2019-05-18T22:57:48.175Z,92711.42
2019-05-18T23:00:16.936Z,92710.39
2019-05-18T23:02:45.374Z,92713.23
2019-05-18T23:05:14.236Z,92712.70
2019-05-18T23:07:43.027Z,92715.53
2019-05-18T23:10:11.883Z,92720.00
2019-05-18T23:12:40.358Z,92719.92
2019-05-18T23:15:09.180Z,92715.61
2019-05-18T23:17:37.577Z,92718.34
2019-05-18T23:20:07.531Z,92714.48
2019-05-18T23:22:36.275Z,92723.55
2019-05-18T23:25:07.007Z,92720.23
2019-05-18T23:27:35.710Z,92717.36
2019-05-18T23:30:06.465Z,92720.17
2019-05-18T23:32:35.028Z,92714.61
2019-05-18T23:35:04.795Z,92717.72
2019-05-18T23:37:33.195Z,92718.39
2019-05-18T23:40:01.685Z,92723.19
2019-05-18T23:42:30.100Z,92725.26
2019-05-18T23:44:58.515Z,92725.77
2019-05-18T23:47:26.949Z,92726.17
2019-05-18T23:49:55.364Z,92722.31
2019-05-18T23:52:23.769Z,92724.35
2019-05-18T23:54:52.461Z,92720.55
2019-05-18T23:57:20.896Z,92719.68
2019-05-18T23:59:49.286Z,92719.30
